sensor_id;sensor_type;location;lat;lon;timestamp;temperature;humidity
23803;DHT22;12082;51.786;6.018;2024-02-26T00:01:10;5.00;99.90
23803;DHT22;12082;51.786;6.018;2024-02-26T00:03:36;4.70;99.90
23803;DHT22;12082;51.786;6.018;2024-02-26T00:06:02;4.70;99.90
23803;DHT22;12082;51.786;6.018;2024-02-26T00:08:28;4.10;99.90
23803;DHT22;12082;51.786;6.018;2024-02-26T00:10:54;4.70;99.90
23803;DHT22;12082;51.786;6.018;2024-02-26T00:13:19;4.80;99.90
23803;DHT22;12082;51.786;6.018;2024-02-26T00:15:46;4.80;99.90
23803;DHT22;12082;51.786;6.018;2024-02-26T00:18:11;5.10;99.90
23803;DHT22;12082;51.786;6.018;2024-02-26T00:20:37;4.90;99.90
23803;DHT22;12082;51.786;6.018;2024-02-26T00:23:02;5.00;99.90
23803;DHT22;12082;51.786;6.018;2024-02-26T00:25:28;5.10;99.90
23803;DHT22;12082;51.786;6.018;2024-02-26T00:27:54;5.50;99.90
23803;DHT22;12082;51.786;6.018;2024-02-26T00:30:19;5.10;99.90
23803;DHT22;12082;51.786;6.018;2024-02-26T00:32:45;5.40;99.90
23803;DHT22;12082;51.786;6.018;2024-02-26T00:35:10;5.20;99.90
23803;DHT22;12082;51.786;6.018;2024-02-26T00:37:36;5.20;99.90
23803;DHT22;12082;51.786;6.018;2024-02-26T00:40:03;5.00;99.90
23803;DHT22;12082;51.786;6.018;2024-02-26T00:42:28;5.20;99.90
23803;DHT22;12082;51.786;6.018;2024-02-26T00:44:54;5.10;99.90
23803;DHT22;12082;51.786;6.018;2024-02-26T00:47:20;5.10;99.90
23803;DHT22;12082;51.786;6.018;2024-02-26T00:49:45;5.10;99.90
23803;DHT22;12082;51.786;6.018;2024-02-26T00:52:11;5.10;99.90
23803;DHT22;12082;51.786;6.018;2024-02-26T00:54:36;5.10;99.90
23803;DHT22;12082;51.786;6.018;2024-02-26T00:57:02;5.20;99.90
23803;DHT22;12082;51.786;6.018;2024-02-26T00:59:27;5.10;99.90
23803;DHT22;12082;51.786;6.018;2024-02-26T01:01:53;5.20;99.90
23803;DHT22;12082;51.786;6.018;2024-02-26T01:04:19;5.20;99.90
23803;DHT22;12082;51.786;6.018;2024-02-26T01:06:44;5.00;99.90
23803;DHT22;12082;51.786;6.018;2024-02-26T01:09:10;5.10;99.90
23803;DHT22;12082;51.786;6.018;2024-02-26T01:11:36;5.10;99.90
23803;DHT22;12082;51.786;6.018;2024-02-26T01:14:01;5.20;99.90
23803;DHT22;12082;51.786;6.018;2024-02-26T01:16:28;5.10;99.90
23803;DHT22;12082;51.786;6.018;2024-02-26T01:18:54;5.40;99.90
23803;DHT22;12082;51.786;6.018;2024-02-26T01:21:20;5.50;99.90
23803;DHT22;12082;51.786;6.018;2024-02-26T01:23:45;5.50;99.90
23803;DHT22;12082;51.786;6.018;2024-02-26T01:26:11;5.30;99.90
23803;DHT22;12082;51.786;6.018;2024-02-26T01:28:36;5.20;99.90
23803;DHT22;12082;51.786;6.018;2024-02-26T01:31:02;5.00;99.90
23803;DHT22;12082;51.786;6.018;2024-02-26T01:33:31;5.20;99.90
23803;DHT22;12082;51.786;6.018;2024-02-26T01:35:57;5.00;99.90
23803;DHT22;12082;51.786;6.018;2024-02-26T01:38:23;5.20;99.90
23803;DHT22;12082;51.786;6.018;2024-02-26T01:40:48;5.20;99.90
23803;DHT22;12082;51.786;6.018;2024-02-26T01:43:14;5.20;99.90
23803;DHT22;12082;51.786;6.018;2024-02-26T01:45:40;5.50;99.90
23803;DHT22;12082;51.786;6.018;2024-02-26T01:48:06;5.20;99.90
23803;DHT22;12082;51.786;6.018;2024-02-26T01:50:32;5.20;99.90
23803;DHT22;12082;51.786;6.018;2024-02-26T01:53:00;5.40;99.90
23803;DHT22;12082;51.786;6.018;2024-02-26T01:55:26;5.50;99.90
23803;DHT22;12082;51.786;6.018;2024-02-26T01:57:51;5.10;99.90
23803;DHT22;12082;51.786;6.018;2024-02-26T02:00:18;5.20;99.90
23803;DHT22;12082;51.786;6.018;2024-02-26T02:02:45;5.50;99.90
23803;DHT22;12082;51.786;6.018;2024-02-26T02:05:15;5.20;99.90
23803;DHT22;12082;51.786;6.018;2024-02-26T02:07:43;5.30;99.90
23803;DHT22;12082;51.786;6.018;2024-02-26T02:10:09;5.10;99.90
23803;DHT22;12082;51.786;6.018;2024-02-26T02:12:35;5.30;99.90
23803;DHT22;12082;51.786;6.018;2024-02-26T02:15:04;5.60;99.90
23803;DHT22;12082;51.786;6.018;2024-02-26T02:17:30;5.40;99.90
23803;DHT22;12082;51.786;6.018;2024-02-26T02:19:56;5.70;99.90
23803;DHT22;12082;51.786;6.018;2024-02-26T02:22:22;5.70;99.90
23803;DHT22;12082;51.786;6.018;2024-02-26T02:24:49;5.40;99.90
23803;DHT22;12082;51.786;6.018;2024-02-26T02:27:15;5.70;99.90
23803;DHT22;12082;51.786;6.018;2024-02-26T02:29:41;5.30;99.90
23803;DHT22;12082;51.786;6.018;2024-02-26T02:32:08;5.30;99.90
23803;DHT22;12082;51.786;6.018;2024-02-26T02:34:34;5.20;99.90
23803;DHT22;12082;51.786;6.018;2024-02-26T02:37:00;5.20;99.90
23803;DHT22;12082;51.786;6.018;2024-02-26T02:39:25;5.10;99.90
23803;DHT22;12082;51.786;6.018;2024-02-26T02:41:51;5.40;99.90
23803;DHT22;12082;51.786;6.018;2024-02-26T02:44:16;4.90;99.90
23803;DHT22;12082;51.786;6.018;2024-02-26T02:46:43;5.10;99.90
23803;DHT22;12082;51.786;6.018;2024-02-26T02:49:11;5.00;99.90
23803;DHT22;12082;51.786;6.018;2024-02-26T02:51:37;5.30;99.90
23803;DHT22;12082;51.786;6.018;2024-02-26T02:54:03;4.90;99.90
23803;DHT22;12082;51.786;6.018;2024-02-26T02:56:29;4.90;99.90
23803;DHT22;12082;51.786;6.018;2024-02-26T02:58:55;4.80;99.90
23803;DHT22;12082;51.786;6.018;2024-02-26T03:01:20;4.80;99.90
23803;DHT22;12082;51.786;6.018;2024-02-26T03:03:46;4.70;99.90
23803;DHT22;12082;51.786;6.018;2024-02-26T03:06:11;4.70;99.90
23803;DHT22;12082;51.786;6.018;2024-02-26T03:08:37;4.70;99.90
23803;DHT22;12082;51.786;6.018;2024-02-26T03:11:05;4.50;99.90
23803;DHT22;12082;51.786;6.018;2024-02-26T03:13:30;5.00;99.90
23803;DHT22;12082;51.786;6.018;2024-02-26T03:15:56;4.60;99.90
23803;DHT22;12082;51.786;6.018;2024-02-26T03:18:22;4.50;99.90
23803;DHT22;12082;51.786;6.018;2024-02-26T03:20:48;4.50;99.90
23803;DHT22;12082;51.786;6.018;2024-02-26T03:23:14;4.60;99.90
23803;DHT22;12082;51.786;6.018;2024-02-26T03:25:43;4.70;99.90
23803;DHT22;12082;51.786;6.018;2024-02-26T03:28:09;4.50;99.90
23803;DHT22;12082;51.786;6.018;2024-02-26T03:30:34;4.50;99.90
23803;DHT22;12082;51.786;6.018;2024-02-26T03:33:00;4.60;99.90
23803;DHT22;12082;51.786;6.018;2024-02-26T03:35:26;5.00;99.90
23803;DHT22;12082;51.786;6.018;2024-02-26T03:37:51;4.50;99.90
23803;DHT22;12082;51.786;6.018;2024-02-26T03:40:17;4.60;99.90
23803;DHT22;12082;51.786;6.018;2024-02-26T03:42:44;4.70;99.90
23803;DHT22;12082;51.786;6.018;2024-02-26T03:45:10;4.80;99.90
23803;DHT22;12082;51.786;6.018;2024-02-26T03:47:37;4.40;99.90
23803;DHT22;12082;51.786;6.018;2024-02-26T03:50:04;4.50;99.90
23803;DHT22;12082;51.786;6.018;2024-02-26T03:52:30;4.50;99.90
23803;DHT22;12082;51.786;6.018;2024-02-26T03:54:56;4.40;99.90
23803;DHT22;12082;51.786;6.018;2024-02-26T03:57:21;4.70;99.90
23803;DHT22;12082;51.786;6.018;2024-02-26T03:59:47;4.40;99.90
23803;DHT22;12082;51.786;6.018;2024-02-26T04:02:12;4.50;99.90
23803;DHT22;12082;51.786;6.018;2024-02-26T04:04:38;4.40;99.90
23803;DHT22;12082;51.786;6.018;2024-02-26T04:07:03;4.50;99.90
23803;DHT22;12082;51.786;6.018;2024-02-26T04:09:31;4.50;99.90
23803;DHT22;12082;51.786;6.018;2024-02-26T04:11:57;4.60;99.90
23803;DHT22;12082;51.786;6.018;2024-02-26T04:14:22;4.60;99.90
23803;DHT22;12082;51.786;6.018;2024-02-26T04:16:48;4.30;99.90
23803;DHT22;12082;51.786;6.018;2024-02-26T04:19:17;4.40;99.90
23803;DHT22;12082;51.786;6.018;2024-02-26T04:21:42;4.80;99.90
23803;DHT22;12082;51.786;6.018;2024-02-26T04:24:08;4.50;99.90
23803;DHT22;12082;51.786;6.018;2024-02-26T04:26:34;4.70;99.90
23803;DHT22;12082;51.786;6.018;2024-02-26T04:29:00;4.40;99.90
23803;DHT22;12082;51.786;6.018;2024-02-26T04:31:25;4.50;99.90
23803;DHT22;12082;51.786;6.018;2024-02-26T04:33:55;4.70;99.90
23803;DHT22;12082;51.786;6.018;2024-02-26T04:36:21;4.50;99.90
23803;DHT22;12082;51.786;6.018;2024-02-26T04:38:47;4.50;99.90
23803;DHT22;12082;51.786;6.018;2024-02-26T04:41:12;4.50;99.90
23803;DHT22;12082;51.786;6.018;2024-02-26T04:43:38;4.40;99.90
23803;DHT22;12082;51.786;6.018;2024-02-26T04:46:10;4.50;99.90
23803;DHT22;12082;51.786;6.018;2024-02-26T04:48:36;4.40;99.90
23803;DHT22;12082;51.786;6.018;2024-02-26T04:51:03;4.50;99.90
23803;DHT22;12082;51.786;6.018;2024-02-26T04:53:29;4.50;99.90
23803;DHT22;12082;51.786;6.018;2024-02-26T04:55:55;4.50;99.90
23803;DHT22;12082;51.786;6.018;2024-02-26T04:58:21;4.60;99.90
23803;DHT22;12082;51.786;6.018;2024-02-26T05:00:46;4.50;99.90
23803;DHT22;12082;51.786;6.018;2024-02-26T05:03:12;4.50;99.90
23803;DHT22;12082;51.786;6.018;2024-02-26T05:05:39;4.60;99.90
23803;DHT22;12082;51.786;6.018;2024-02-26T05:08:06;4.70;99.90
23803;DHT22;12082;51.786;6.018;2024-02-26T05:10:33;4.60;99.90
23803;DHT22;12082;51.786;6.018;2024-02-26T05:12:58;4.70;99.90
23803;DHT22;12082;51.786;6.018;2024-02-26T05:15:24;4.70;99.90
23803;DHT22;12082;51.786;6.018;2024-02-26T05:17:49;4.40;99.90
23803;DHT22;12082;51.786;6.018;2024-02-26T05:20:15;4.60;99.90
23803;DHT22;12082;51.786;6.018;2024-02-26T05:22:41;4.60;99.90
23803;DHT22;12082;51.786;6.018;2024-02-26T05:25:07;4.60;99.90
23803;DHT22;12082;51.786;6.018;2024-02-26T05:27:33;4.60;99.90
23803;DHT22;12082;51.786;6.018;2024-02-26T05:29:58;4.60;99.90
23803;DHT22;12082;51.786;6.018;2024-02-26T05:32:24;4.80;99.90
23803;DHT22;12082;51.786;6.018;2024-02-26T05:34:50;4.50;99.90
23803;DHT22;12082;51.786;6.018;2024-02-26T05:37:15;4.60;99.90
23803;DHT22;12082;51.786;6.018;2024-02-26T05:39:41;4.60;99.90
23803;DHT22;12082;51.786;6.018;2024-02-26T05:42:06;4.60;99.90
23803;DHT22;12082;51.786;6.018;2024-02-26T05:44:34;4.70;99.90
23803;DHT22;12082;51.786;6.018;2024-02-26T05:46:59;4.50;99.90
23803;DHT22;12082;51.786;6.018;2024-02-26T05:49:25;4.50;99.90
23803;DHT22;12082;51.786;6.018;2024-02-26T05:51:51;4.50;99.90
23803;DHT22;12082;51.786;6.018;2024-02-26T05:54:16;4.60;99.90
23803;DHT22;12082;51.786;6.018;2024-02-26T05:56:42;4.50;99.90
23803;DHT22;12082;51.786;6.018;2024-02-26T05:59:08;4.90;99.90
23803;DHT22;12082;51.786;6.018;2024-02-26T06:01:33;4.80;99.90
23803;DHT22;12082;51.786;6.018;2024-02-26T06:03:59;4.50;99.90
23803;DHT22;12082;51.786;6.018;2024-02-26T06:06:25;4.60;99.90
23803;DHT22;12082;51.786;6.018;2024-02-26T06:08:50;4.40;99.90
23803;DHT22;12082;51.786;6.018;2024-02-26T06:11:16;4.50;99.90
23803;DHT22;12082;51.786;6.018;2024-02-26T06:13:43;4.60;99.90
23803;DHT22;12082;51.786;6.018;2024-02-26T06:16:08;4.90;99.90
23803;DHT22;12082;51.786;6.018;2024-02-26T06:18:34;4.60;99.90
23803;DHT22;12082;51.786;6.018;2024-02-26T06:21:00;4.60;99.90
23803;DHT22;12082;51.786;6.018;2024-02-26T06:23:26;4.50;99.90
23803;DHT22;12082;51.786;6.018;2024-02-26T06:25:52;4.50;99.90
23803;DHT22;12082;51.786;6.018;2024-02-26T06:28:18;4.40;99.90
23803;DHT22;12082;51.786;6.018;2024-02-26T06:30:43;4.30;99.90
23803;DHT22;12082;51.786;6.018;2024-02-26T06:33:09;4.50;99.90
23803;DHT22;12082;51.786;6.018;2024-02-26T06:35:36;4.50;99.90
23803;DHT22;12082;51.786;6.018;2024-02-26T06:38:01;4.40;99.90
23803;DHT22;12082;51.786;6.018;2024-02-26T06:40:27;4.30;99.90
23803;DHT22;12082;51.786;6.018;2024-02-26T06:42:53;4.80;99.90
23803;DHT22;12082;51.786;6.018;2024-02-26T06:45:20;4.50;99.90
23803;DHT22;12082;51.786;6.018;2024-02-26T06:47:46;4.50;99.90
23803;DHT22;12082;51.786;6.018;2024-02-26T06:50:12;4.50;99.90
23803;DHT22;12082;51.786;6.018;2024-02-26T06:52:39;5.20;99.90
23803;DHT22;12082;51.786;6.018;2024-02-26T06:55:05;4.80;99.90
23803;DHT22;12082;51.786;6.018;2024-02-26T06:57:33;4.60;99.90
23803;DHT22;12082;51.786;6.018;2024-02-26T06:59:58;4.80;99.90
23803;DHT22;12082;51.786;6.018;2024-02-26T07:02:24;4.60;99.90
23803;DHT22;12082;51.786;6.018;2024-02-26T07:04:50;4.80;99.90
23803;DHT22;12082;51.786;6.018;2024-02-26T07:07:16;4.60;99.90
23803;DHT22;12082;51.786;6.018;2024-02-26T07:09:44;4.60;99.90
23803;DHT22;12082;51.786;6.018;2024-02-26T07:12:09;4.80;99.90
23803;DHT22;12082;51.786;6.018;2024-02-26T07:14:35;4.50;99.90
23803;DHT22;12082;51.786;6.018;2024-02-26T07:17:03;4.60;99.90
23803;DHT22;12082;51.786;6.018;2024-02-26T07:19:28;4.60;99.90
23803;DHT22;12082;51.786;6.018;2024-02-26T07:21:54;4.60;99.90
23803;DHT22;12082;51.786;6.018;2024-02-26T07:24:21;4.40;99.90
23803;DHT22;12082;51.786;6.018;2024-02-26T07:26:46;4.60;99.90
23803;DHT22;12082;51.786;6.018;2024-02-26T07:29:12;4.90;99.90
23803;DHT22;12082;51.786;6.018;2024-02-26T07:31:38;4.80;99.90
23803;DHT22;12082;51.786;6.018;2024-02-26T07:34:03;4.70;99.90
23803;DHT22;12082;51.786;6.018;2024-02-26T07:36:29;4.70;99.90
23803;DHT22;12082;51.786;6.018;2024-02-26T07:38:54;4.90;99.90
23803;DHT22;12082;51.786;6.018;2024-02-26T07:41:20;4.70;99.90
23803;DHT22;12082;51.786;6.018;2024-02-26T07:43:47;4.60;99.90
23803;DHT22;12082;51.786;6.018;2024-02-26T07:46:12;4.70;99.90
23803;DHT22;12082;51.786;6.018;2024-02-26T07:48:38;5.10;99.90
23803;DHT22;12082;51.786;6.018;2024-02-26T07:51:04;5.30;99.90
23803;DHT22;12082;51.786;6.018;2024-02-26T07:53:30;4.80;99.90
23803;DHT22;12082;51.786;6.018;2024-02-26T07:55:56;4.80;99.90
23803;DHT22;12082;51.786;6.018;2024-02-26T07:58:23;4.80;99.90
23803;DHT22;12082;51.786;6.018;2024-02-26T08:00:49;4.60;99.90
23803;DHT22;12082;51.786;6.018;2024-02-26T08:03:15;4.80;99.90
23803;DHT22;12082;51.786;6.018;2024-02-26T08:05:41;4.80;99.90
23803;DHT22;12082;51.786;6.018;2024-02-26T08:08:08;4.70;99.90
23803;DHT22;12082;51.786;6.018;2024-02-26T08:10:34;4.80;99.90
23803;DHT22;12082;51.786;6.018;2024-02-26T08:13:00;3.80;99.90
23803;DHT22;12082;51.786;6.018;2024-02-26T08:15:35;4.80;99.90
23803;DHT22;12082;51.786;6.018;2024-02-26T08:18:01;4.80;99.90
23803;DHT22;12082;51.786;6.018;2024-02-26T08:20:30;4.70;99.90
23803;DHT22;12082;51.786;6.018;2024-02-26T08:22:57;4.60;99.90
23803;DHT22;12082;51.786;6.018;2024-02-26T08:25:23;4.80;99.90
23803;DHT22;12082;51.786;6.018;2024-02-26T08:27:49;5.00;99.90
23803;DHT22;12082;51.786;6.018;2024-02-26T08:30:15;4.60;99.90
23803;DHT22;12082;51.786;6.018;2024-02-26T08:32:47;4.80;99.90
23803;DHT22;12082;51.786;6.018;2024-02-26T08:35:13;4.80;99.90
23803;DHT22;12082;51.786;6.018;2024-02-26T08:37:39;4.60;99.90
23803;DHT22;12082;51.786;6.018;2024-02-26T08:40:06;5.20;99.90
23803;DHT22;12082;51.786;6.018;2024-02-26T08:42:32;4.90;99.90
23803;DHT22;12082;51.786;6.018;2024-02-26T08:44:57;4.70;99.90
23803;DHT22;12082;51.786;6.018;2024-02-26T08:47:25;5.00;99.90
23803;DHT22;12082;51.786;6.018;2024-02-26T08:49:51;5.40;99.90
23803;DHT22;12082;51.786;6.018;2024-02-26T08:52:17;5.10;99.90
23803;DHT22;12082;51.786;6.018;2024-02-26T08:54:42;5.00;99.90
23803;DHT22;12082;51.786;6.018;2024-02-26T08:57:08;5.00;99.90
23803;DHT22;12082;51.786;6.018;2024-02-26T08:59:34;5.10;99.90
23803;DHT22;12082;51.786;6.018;2024-02-26T09:01:59;5.10;99.90
23803;DHT22;12082;51.786;6.018;2024-02-26T09:04:25;5.10;99.90
23803;DHT22;12082;51.786;6.018;2024-02-26T09:06:51;5.20;99.90
23803;DHT22;12082;51.786;6.018;2024-02-26T09:09:17;5.00;99.90
23803;DHT22;12082;51.786;6.018;2024-02-26T09:11:43;5.00;99.90
23803;DHT22;12082;51.786;6.018;2024-02-26T09:14:08;5.30;99.90
23803;DHT22;12082;51.786;6.018;2024-02-26T09:16:34;5.20;99.90
23803;DHT22;12082;51.786;6.018;2024-02-26T09:18:59;5.30;99.90
23803;DHT22;12082;51.786;6.018;2024-02-26T09:21:25;5.00;99.90
23803;DHT22;12082;51.786;6.018;2024-02-26T09:23:51;5.30;99.90
23803;DHT22;12082;51.786;6.018;2024-02-26T09:26:17;5.40;99.90
23803;DHT22;12082;51.786;6.018;2024-02-26T09:28:43;5.30;99.90
23803;DHT22;12082;51.786;6.018;2024-02-26T09:31:08;5.30;99.90
23803;DHT22;12082;51.786;6.018;2024-02-26T09:33:34;5.30;99.90
23803;DHT22;12082;51.786;6.018;2024-02-26T09:36:00;5.10;99.90
23803;DHT22;12082;51.786;6.018;2024-02-26T09:38:26;5.10;99.90
23803;DHT22;12082;51.786;6.018;2024-02-26T09:40:52;5.20;99.90
23803;DHT22;12082;51.786;6.018;2024-02-26T09:43:21;5.50;99.90
23803;DHT22;12082;51.786;6.018;2024-02-26T09:45:50;5.00;99.90
23803;DHT22;12082;51.786;6.018;2024-02-26T09:48:17;5.30;99.90
23803;DHT22;12082;51.786;6.018;2024-02-26T09:50:43;5.50;99.90
23803;DHT22;12082;51.786;6.018;2024-02-26T09:53:11;5.30;99.90
23803;DHT22;12082;51.786;6.018;2024-02-26T09:55:37;5.40;99.90
23803;DHT22;12082;51.786;6.018;2024-02-26T09:58:05;5.30;99.90
23803;DHT22;12082;51.786;6.018;2024-02-26T10:00:32;5.40;99.90
23803;DHT22;12082;51.786;6.018;2024-02-26T10:03:06;5.30;99.90
23803;DHT22;12082;51.786;6.018;2024-02-26T10:05:33;5.30;99.90
23803;DHT22;12082;51.786;6.018;2024-02-26T10:07:59;6.70;99.90
23803;DHT22;12082;51.786;6.018;2024-02-26T10:10:28;5.50;99.90
23803;DHT22;12082;51.786;6.018;2024-02-26T10:12:54;5.50;99.90
23803;DHT22;12082;51.786;6.018;2024-02-26T10:15:20;5.30;99.90
23803;DHT22;12082;51.786;6.018;2024-02-26T10:17:46;5.50;99.90
23803;DHT22;12082;51.786;6.018;2024-02-26T10:20:15;5.30;99.90
23803;DHT22;12082;51.786;6.018;2024-02-26T10:22:42;5.40;99.90
23803;DHT22;12082;51.786;6.018;2024-02-26T10:25:08;5.40;99.90
23803;DHT22;12082;51.786;6.018;2024-02-26T10:27:34;5.40;99.90
23803;DHT22;12082;51.786;6.018;2024-02-26T10:30:23;5.30;99.90
23803;DHT22;12082;51.786;6.018;2024-02-26T10:32:51;5.40;99.90
23803;DHT22;12082;51.786;6.018;2024-02-26T10:35:17;5.40;99.90
23803;DHT22;12082;51.786;6.018;2024-02-26T10:37:44;5.40;99.90
23803;DHT22;12082;51.786;6.018;2024-02-26T10:40:10;5.50;99.90
23803;DHT22;12082;51.786;6.018;2024-02-26T10:42:36;5.50;99.90
23803;DHT22;12082;51.786;6.018;2024-02-26T10:45:06;5.40;99.90
23803;DHT22;12082;51.786;6.018;2024-02-26T10:47:33;5.40;99.90
23803;DHT22;12082;51.786;6.018;2024-02-26T10:50:00;5.30;99.90
23803;DHT22;12082;51.786;6.018;2024-02-26T10:52:27;5.30;99.90
23803;DHT22;12082;51.786;6.018;2024-02-26T10:54:56;5.90;99.90
23803;DHT22;12082;51.786;6.018;2024-02-26T10:57:24;5.40;99.90
23803;DHT22;12082;51.786;6.018;2024-02-26T10:59:52;5.40;99.90
23803;DHT22;12082;51.786;6.018;2024-02-26T11:02:19;5.40;99.90
23803;DHT22;12082;51.786;6.018;2024-02-26T11:04:46;5.80;99.90
23803;DHT22;12082;51.786;6.018;2024-02-26T11:07:13;5.40;99.90
23803;DHT22;12082;51.786;6.018;2024-02-26T11:09:40;5.40;99.90
23803;DHT22;12082;51.786;6.018;2024-02-26T11:12:11;5.70;99.90
23803;DHT22;12082;51.786;6.018;2024-02-26T11:14:42;5.90;99.90
23803;DHT22;12082;51.786;6.018;2024-02-26T11:17:09;5.40;99.90
23803;DHT22;12082;51.786;6.018;2024-02-26T11:19:37;5.40;99.90
23803;DHT22;12082;51.786;6.018;2024-02-26T11:22:03;5.40;99.90
23803;DHT22;12082;51.786;6.018;2024-02-26T11:24:29;5.40;99.90
23803;DHT22;12082;51.786;6.018;2024-02-26T11:26:57;5.20;99.90
23803;DHT22;12082;51.786;6.018;2024-02-26T11:29:27;5.70;99.90
23803;DHT22;12082;51.786;6.018;2024-02-26T11:31:54;5.40;99.90
23803;DHT22;12082;51.786;6.018;2024-02-26T11:34:20;5.60;99.90
23803;DHT22;12082;51.786;6.018;2024-02-26T11:36:46;5.40;99.90
23803;DHT22;12082;51.786;6.018;2024-02-26T11:39:12;5.40;99.90
23803;DHT22;12082;51.786;6.018;2024-02-26T11:41:38;5.50;99.90
23803;DHT22;12082;51.786;6.018;2024-02-26T11:44:04;5.40;99.90
23803;DHT22;12082;51.786;6.018;2024-02-26T11:46:42;5.50;99.90
23803;DHT22;12082;51.786;6.018;2024-02-26T11:51:56;5.50;99.90
23803;DHT22;12082;51.786;6.018;2024-02-26T11:59:48;5.80;99.90
23803;DHT22;12082;51.786;6.018;2024-02-26T12:02:39;5.70;99.90
23803;DHT22;12082;51.786;6.018;2024-02-26T12:05:16;5.60;99.90
23803;DHT22;12082;51.786;6.018;2024-02-26T12:08:03;5.60;99.90
23803;DHT22;12082;51.786;6.018;2024-02-26T12:10:34;5.60;99.90
23803;DHT22;12082;51.786;6.018;2024-02-26T12:13:17;5.80;99.90
23803;DHT22;12082;51.786;6.018;2024-02-26T12:15:44;5.40;99.90
23803;DHT22;12082;51.786;6.018;2024-02-26T12:18:15;5.60;99.90
23803;DHT22;12082;51.786;6.018;2024-02-26T12:20:41;5.40;99.90
23803;DHT22;12082;51.786;6.018;2024-02-26T12:23:06;5.40;99.90
23803;DHT22;12082;51.786;6.018;2024-02-26T12:25:33;5.50;99.90
23803;DHT22;12082;51.786;6.018;2024-02-26T12:27:59;5.20;99.90
23803;DHT22;12082;51.786;6.018;2024-02-26T12:30:25;5.50;99.90
23803;DHT22;12082;51.786;6.018;2024-02-26T12:32:53;5.40;99.90
23803;DHT22;12082;51.786;6.018;2024-02-26T12:35:24;5.40;99.90
23803;DHT22;12082;51.786;6.018;2024-02-26T12:37:50;5.20;99.90
23803;DHT22;12082;51.786;6.018;2024-02-26T12:40:17;5.80;99.90
23803;DHT22;12082;51.786;6.018;2024-02-26T12:42:43;5.40;99.90
23803;DHT22;12082;51.786;6.018;2024-02-26T12:45:13;5.20;99.90
23803;DHT22;12082;51.786;6.018;2024-02-26T12:47:44;5.60;99.90
23803;DHT22;12082;51.786;6.018;2024-02-26T12:50:12;5.70;99.90
23803;DHT22;12082;51.786;6.018;2024-02-26T12:52:46;5.30;99.90
23803;DHT22;12082;51.786;6.018;2024-02-26T12:55:17;5.20;99.90
23803;DHT22;12082;51.786;6.018;2024-02-26T12:57:45;5.30;99.90
23803;DHT22;12082;51.786;6.018;2024-02-26T13:00:16;5.40;99.90
23803;DHT22;12082;51.786;6.018;2024-02-26T13:02:43;5.40;99.90
23803;DHT22;12082;51.786;6.018;2024-02-26T13:05:11;5.40;99.90
23803;DHT22;12082;51.786;6.018;2024-02-26T13:07:41;5.40;99.90
23803;DHT22;12082;51.786;6.018;2024-02-26T13:10:08;6.00;99.90
23803;DHT22;12082;51.786;6.018;2024-02-26T13:12:34;5.40;99.90
23803;DHT22;12082;51.786;6.018;2024-02-26T13:15:01;5.80;99.90
23803;DHT22;12082;51.786;6.018;2024-02-26T13:17:27;5.50;99.90
23803;DHT22;12082;51.786;6.018;2024-02-26T13:19:54;5.40;99.90
23803;DHT22;12082;51.786;6.018;2024-02-26T13:22:23;5.20;99.90
23803;DHT22;12082;51.786;6.018;2024-02-26T13:24:56;5.40;99.90
23803;DHT22;12082;51.786;6.018;2024-02-26T13:27:25;5.50;99.90
23803;DHT22;12082;51.786;6.018;2024-02-26T13:30:04;5.50;99.90
23803;DHT22;12082;51.786;6.018;2024-02-26T13:32:38;5.50;99.90
23803;DHT22;12082;51.786;6.018;2024-02-26T13:35:11;5.50;99.90
23803;DHT22;12082;51.786;6.018;2024-02-26T13:37:38;5.50;99.90
23803;DHT22;12082;51.786;6.018;2024-02-26T13:40:11;5.50;99.90
23803;DHT22;12082;51.786;6.018;2024-02-26T13:42:37;5.50;99.90
23803;DHT22;12082;51.786;6.018;2024-02-26T13:45:03;5.90;99.90
23803;DHT22;12082;51.786;6.018;2024-02-26T13:47:35;5.60;99.90
23803;DHT22;12082;51.786;6.018;2024-02-26T13:50:01;5.50;99.90
23803;DHT22;12082;51.786;6.018;2024-02-26T13:52:27;5.40;99.90
23803;DHT22;12082;51.786;6.018;2024-02-26T13:54:52;5.80;99.90
23803;DHT22;12082;51.786;6.018;2024-02-26T13:57:19;5.70;99.90
23803;DHT22;12082;51.786;6.018;2024-02-26T13:59:45;5.70;99.90
23803;DHT22;12082;51.786;6.018;2024-02-26T14:02:11;5.90;99.90
23803;DHT22;12082;51.786;6.018;2024-02-26T14:04:37;5.60;99.90
23803;DHT22;12082;51.786;6.018;2024-02-26T14:07:04;5.70;99.90
23803;DHT22;12082;51.786;6.018;2024-02-26T14:09:30;5.70;99.90
23803;DHT22;12082;51.786;6.018;2024-02-26T14:11:58;5.80;99.90
23803;DHT22;12082;51.786;6.018;2024-02-26T14:14:24;5.70;99.90
23803;DHT22;12082;51.786;6.018;2024-02-26T14:16:51;5.90;99.90
23803;DHT22;12082;51.786;6.018;2024-02-26T14:19:17;6.10;99.90
23803;DHT22;12082;51.786;6.018;2024-02-26T14:21:42;6.00;99.90
23803;DHT22;12082;51.786;6.018;2024-02-26T14:24:08;5.70;99.90
23803;DHT22;12082;51.786;6.018;2024-02-26T14:26:34;5.60;99.90
23803;DHT22;12082;51.786;6.018;2024-02-26T14:28:59;5.90;99.90
23803;DHT22;12082;51.786;6.018;2024-02-26T14:31:25;5.70;99.90
23803;DHT22;12082;51.786;6.018;2024-02-26T14:33:51;6.10;99.90
23803;DHT22;12082;51.786;6.018;2024-02-26T14:36:20;5.60;99.90
23803;DHT22;12082;51.786;6.018;2024-02-26T14:38:46;5.60;99.90
23803;DHT22;12082;51.786;6.018;2024-02-26T14:41:12;5.90;99.90
23803;DHT22;12082;51.786;6.018;2024-02-26T14:43:38;5.70;99.90
23803;DHT22;12082;51.786;6.018;2024-02-26T14:46:03;5.70;99.90
23803;DHT22;12082;51.786;6.018;2024-02-26T14:48:30;5.70;99.90
23803;DHT22;12082;51.786;6.018;2024-02-26T14:50:57;5.60;99.90
23803;DHT22;12082;51.786;6.018;2024-02-26T14:53:22;6.00;99.90
23803;DHT22;12082;51.786;6.018;2024-02-26T14:55:48;5.50;99.90
23803;DHT22;12082;51.786;6.018;2024-02-26T14:58:14;5.60;99.90
23803;DHT22;12082;51.786;6.018;2024-02-26T15:00:39;5.80;99.90
23803;DHT22;12082;51.786;6.018;2024-02-26T15:03:05;5.60;99.90
23803;DHT22;12082;51.786;6.018;2024-02-26T15:05:32;5.80;99.90
23803;DHT22;12082;51.786;6.018;2024-02-26T15:07:58;5.80;99.90
23803;DHT22;12082;51.786;6.018;2024-02-26T15:10:25;5.70;99.90
23803;DHT22;12082;51.786;6.018;2024-02-26T15:12:50;5.60;99.90
23803;DHT22;12082;51.786;6.018;2024-02-26T15:15:20;5.60;99.90
23803;DHT22;12082;51.786;6.018;2024-02-26T15:17:46;5.60;99.90
23803;DHT22;12082;51.786;6.018;2024-02-26T15:20:12;5.60;99.90
23803;DHT22;12082;51.786;6.018;2024-02-26T15:22:37;5.50;99.90
23803;DHT22;12082;51.786;6.018;2024-02-26T15:25:03;5.60;99.90
23803;DHT22;12082;51.786;6.018;2024-02-26T15:27:29;5.60;99.90
23803;DHT22;12082;51.786;6.018;2024-02-26T15:29:55;5.90;99.90
23803;DHT22;12082;51.786;6.018;2024-02-26T15:32:24;5.60;99.90
23803;DHT22;12082;51.786;6.018;2024-02-26T15:34:50;5.70;99.90
23803;DHT22;12082;51.786;6.018;2024-02-26T15:37:17;5.50;99.90
23803;DHT22;12082;51.786;6.018;2024-02-26T15:39:42;5.60;99.90
23803;DHT22;12082;51.786;6.018;2024-02-26T15:42:08;5.60;99.90
23803;DHT22;12082;51.786;6.018;2024-02-26T15:44:33;5.60;99.90
23803;DHT22;12082;51.786;6.018;2024-02-26T15:46:59;5.70;99.90
23803;DHT22;12082;51.786;6.018;2024-02-26T15:49:25;5.60;99.90